createdAt,value
2018-01-11T00:00:38.484Z,95.07
2018-01-11T00:01:19.075Z,95.17
2018-01-11T00:01:59.666Z,94.89
2018-01-11T00:02:40.281Z,94.89
2018-01-11T00:03:20.834Z,95.84
2018-01-11T00:04:01.410Z,94.89
2018-01-11T00:04:41.984Z,95.17
2018-01-11T00:05:22.572Z,95.17
2018-01-11T00:06:03.149Z,95.07
2018-01-11T00:06:43.713Z,94.98
2018-01-11T00:07:24.286Z,95.07
2018-01-11T00:08:04.844Z,95.07
2018-01-11T00:08:45.435Z,95.07
2018-01-11T00:09:25.990Z,95.17
2018-01-11T00:10:06.556Z,95.07
2018-01-11T00:10:47.129Z,95.07
2018-01-11T00:11:27.710Z,95.07
2018-01-11T00:12:08.264Z,95.17
2018-01-11T00:12:48.828Z,95.07
2018-01-11T00:13:29.393Z,95.17
2018-01-11T00:14:09.962Z,95.26
2018-01-11T00:14:50.547Z,95.07
2018-01-11T00:15:31.113Z,94.89
2018-01-11T00:16:11.681Z,95.84
2018-01-11T00:16:52.264Z,95.74
2018-01-11T00:17:32.824Z,95.74
2018-01-11T00:18:13.400Z,95.74
2018-01-11T00:18:53.974Z,95.65
2018-01-11T00:19:34.553Z,95.65
2018-01-11T00:20:15.138Z,95.74
2018-01-11T00:20:55.713Z,95.26
2018-01-11T00:21:36.285Z,95.26
2018-01-11T00:22:16.910Z,95.65
2018-01-11T00:22:57.489Z,95.65
2018-01-11T00:23:38.055Z,95.65
2018-01-11T00:24:18.625Z,95.74
2018-01-11T00:24:59.197Z,95.74
2018-01-11T00:25:39.759Z,95.74
2018-01-11T00:26:20.349Z,95.74
2018-01-11T00:27:00.913Z,95.65
2018-01-11T00:27:41.484Z,95.65
2018-01-11T00:28:22.073Z,95.55
2018-01-11T00:29:02.626Z,95.74
2018-01-11T00:29:43.195Z,95.74
2018-01-11T00:30:23.763Z,95.74
2018-01-11T00:31:04.337Z,95.74
2018-01-11T00:31:44.889Z,95.55
2018-01-11T00:32:25.462Z,95.74
2018-01-11T00:33:06.051Z,95.74
2018-01-11T00:33:46.627Z,95.74
2018-01-11T00:34:27.210Z,95.74
2018-01-11T00:35:07.805Z,95.74
2018-01-11T00:35:48.405Z,95.65
2018-01-11T00:36:28.986Z,95.45
2018-01-11T00:37:09.556Z,95.55
2018-01-11T00:37:50.137Z,96.12
2018-01-11T00:38:30.722Z,96.03
2018-01-11T00:39:11.343Z,95.93
2018-01-11T00:39:51.906Z,95.93
2018-01-11T00:40:32.471Z,95.93
2018-01-11T00:41:13.041Z,95.93
2018-01-11T00:41:53.612Z,96.12
2018-01-11T00:42:34.171Z,95.93
2018-01-11T00:43:14.751Z,95.84
2018-01-11T00:43:55.304Z,95.93
2018-01-11T00:44:35.882Z,95.93
2018-01-11T00:45:16.460Z,95.93
2018-01-11T00:45:57.029Z,95.55
2018-01-11T00:46:37.595Z,95.93
2018-01-11T00:47:18.205Z,95.74
2018-01-11T00:47:58.771Z,95.45
2018-01-11T00:48:39.344Z,95.65
2018-01-11T00:49:19.904Z,95.55
2018-01-11T00:50:00.465Z,96.03
2018-01-11T00:50:41.057Z,95.74
2018-01-11T00:51:21.633Z,95.74
2018-01-11T00:52:02.186Z,95.74
2018-01-11T00:52:42.770Z,95.74
2018-01-11T00:53:23.359Z,95.45
2018-01-11T00:54:03.921Z,95.55
2018-01-11T00:54:44.482Z,95.84
2018-01-11T00:55:25.037Z,95.84
2018-01-11T00:56:05.604Z,95.65
2018-01-11T00:56:46.189Z,95.65
2018-01-11T00:57:26.773Z,95.55
2018-01-11T00:58:07.348Z,95.84
2018-01-11T00:58:47.915Z,95.84
2018-01-11T00:59:28.484Z,95.55
2018-01-11T01:00:09.059Z,95.36
2018-01-11T01:00:49.630Z,95.55
2018-01-11T01:01:30.217Z,95.74
2018-01-11T01:02:10.834Z,95.93
2018-01-11T01:02:51.397Z,96.12
2018-01-11T01:03:31.976Z,95.84
2018-01-11T01:04:12.541Z,95.74
2018-01-11T01:04:53.108Z,95.65
2018-01-11T01:05:33.691Z,95.84
2018-01-11T01:06:14.255Z,95.74
2018-01-11T01:06:54.828Z,96.5
2018-01-11T01:07:35.435Z,96.5
2018-01-11T01:08:16.005Z,96.31
2018-01-11T01:08:56.568Z,96.22
2018-01-11T01:09:37.112Z,96.22
2018-01-11T01:10:17.710Z,96.22
2018-01-11T01:10:58.256Z,96.31
2018-01-11T01:11:38.825Z,96.31
2018-01-11T01:12:19.382Z,96.31
2018-01-11T01:12:59.946Z,96.31
2018-01-11T01:13:40.532Z,96.31
2018-01-11T01:14:21.110Z,96.5
2018-01-11T01:15:01.657Z,96.31
2018-01-11T01:15:42.210Z,96.22
2018-01-11T01:16:22.769Z,96.41
2018-01-11T01:17:03.330Z,96.41
2018-01-11T01:17:43.910Z,96.41
2018-01-11T01:18:24.464Z,96.12
2018-01-11T01:19:05.025Z,96.22
2018-01-11T01:19:45.614Z,95.93
2018-01-11T01:20:26.186Z,96.41
2018-01-11T01:21:06.745Z,96.97
2018-01-11T01:21:47.310Z,96.5
2018-01-11T01:22:27.877Z,96.78
2018-01-11T01:23:08.452Z,96.59
2018-01-11T01:23:49.028Z,96.41
2018-01-11T01:24:29.602Z,96.22
2018-01-11T01:25:10.175Z,96.31
2018-01-11T01:25:50.733Z,96.12
2018-01-11T01:26:31.309Z,96.12
2018-01-11T01:27:11.866Z,96.41
2018-01-11T01:27:52.422Z,96.5
2018-01-11T01:28:32.993Z,96.22
2018-01-11T01:29:13.561Z,95.65
2018-01-11T01:29:54.134Z,95.55
2018-01-11T01:30:34.690Z,95.84
2018-01-11T01:31:15.253Z,96.31
2018-01-11T01:31:55.810Z,95.55
2018-01-11T01:32:36.385Z,95.55
2018-01-11T01:33:16.950Z,95.65
2018-01-11T01:33:57.520Z,95.74
2018-01-11T01:34:38.114Z,95.74
2018-01-11T01:35:18.682Z,95.65
2018-01-11T01:35:59.247Z,95.74
2018-01-11T01:36:39.811Z,95.84
2018-01-11T01:37:20.407Z,95.93
2018-01-11T01:38:00.967Z,95.93
2018-01-11T01:38:41.541Z,95.84
2018-01-11T01:39:22.103Z,95.84
2018-01-11T01:40:02.683Z,95.93
2018-01-11T01:40:43.246Z,95.74
2018-01-11T01:41:23.800Z,95.74
2018-01-11T01:42:04.364Z,95.55
2018-01-11T01:42:44.935Z,95.65
2018-01-11T01:43:25.501Z,95.65
2018-01-11T01:44:06.072Z,95.84
2018-01-11T01:44:46.645Z,95.93
2018-01-11T01:45:27.230Z,95.84
2018-01-11T01:46:07.798Z,95.93
2018-01-11T01:46:48.358Z,95.65
2018-01-11T01:47:28.936Z,95.55
2018-01-11T01:48:09.508Z,96.31
2018-01-11T01:48:50.089Z,96.36
2018-01-11T01:49:30.647Z,96.22
2018-01-11T01:50:11.211Z,96.45
2018-01-11T01:50:51.790Z,96.08
2018-01-11T01:51:32.356Z,96.03
2018-01-11T01:52:12.973Z,95.74
2018-01-11T01:52:53.508Z,95.93
2018-01-11T01:53:34.071Z,95.65
2018-01-11T01:54:14.656Z,96.31
2018-01-11T01:54:55.216Z,96.45
2018-01-11T01:55:35.778Z,96.41
2018-01-11T01:56:16.341Z,96.31
2018-01-11T01:56:56.919Z,96.59
2018-01-11T01:57:37.492Z,96.41
2018-01-11T01:58:20.894Z,96.69
2018-01-11T01:59:01.471Z,96.41
2018-01-11T01:59:42.031Z,96.41
2018-01-11T02:00:22.588Z,96.59
2018-01-11T02:01:03.176Z,96.78
2018-01-11T02:01:43.748Z,96.88
2018-01-11T02:02:24.300Z,97.02
2018-01-11T02:03:04.855Z,96.55
2018-01-11T02:03:45.423Z,96.69
2018-01-11T02:04:26.015Z,96.41
2018-01-11T02:05:06.579Z,96.45
2018-01-11T02:05:47.324Z,96.69
2018-01-11T02:06:28.214Z,96.83
2018-01-11T02:07:08.977Z,96.64
2018-01-11T02:07:49.537Z,96.83
2018-01-11T02:08:30.100Z,96.55
2018-01-11T02:09:10.653Z,96.55
2018-01-11T02:09:51.233Z,96.31
2018-01-11T02:10:31.804Z,96.55
2018-01-11T02:11:12.360Z,96.5
2018-01-11T02:11:52.926Z,96.83
2018-01-11T02:12:33.487Z,96.69
2018-01-11T02:13:14.056Z,96.92
2018-01-11T02:13:54.627Z,97.12
2018-01-11T02:14:35.176Z,96.73
2018-01-11T02:15:15.743Z,97.12
2018-01-11T02:15:56.323Z,96.73
2018-01-11T02:16:36.900Z,96.73
2018-01-11T02:17:17.492Z,96.88
2018-01-11T02:17:58.068Z,96.64
2018-01-11T02:18:38.634Z,96.83
2018-01-11T02:19:19.202Z,96.55
2018-01-11T02:19:59.770Z,96.26
2018-01-11T02:20:40.362Z,96.55
2018-01-11T02:21:20.928Z,96.45
2018-01-11T02:22:01.512Z,96.59
2018-01-11T02:22:42.073Z,96.41
2018-01-11T02:23:22.631Z,96.26
2018-01-11T02:24:03.209Z,96.55
2018-01-11T02:24:43.836Z,96.73
2018-01-11T02:25:24.425Z,96.55
2018-01-11T02:26:05.020Z,96.73
2018-01-11T02:26:45.590Z,96.64
2018-01-11T02:27:26.147Z,96.92
2018-01-11T02:28:06.711Z,96.92
2018-01-11T02:28:47.275Z,96.92
2018-01-11T02:29:27.829Z,96.45
2018-01-11T02:30:08.401Z,96.55
2018-01-11T02:30:48.996Z,96.73
2018-01-11T02:31:29.548Z,96.55
2018-01-11T02:32:10.122Z,96.55
2018-01-11T02:32:50.682Z,96.55
2018-01-11T02:33:31.250Z,96.73
2018-01-11T02:34:11.805Z,96.26
2018-01-11T02:34:52.393Z,96.45
2018-01-11T02:35:32.948Z,96.64
2018-01-11T02:36:13.525Z,96.45
2018-01-11T02:36:54.090Z,96.83
2018-01-11T02:37:34.646Z,97.4
2018-01-11T02:38:15.247Z,97.21
2018-01-11T02:38:55.801Z,97.12
2018-01-11T02:39:36.374Z,96.73
2018-01-11T02:40:16.951Z,96.55
2018-01-11T02:40:57.528Z,96.64
2018-01-11T02:41:38.108Z,96.64
2018-01-11T02:42:18.669Z,96.73
2018-01-11T02:42:59.232Z,97.02
2018-01-11T02:43:39.810Z,96.73
2018-01-11T02:44:20.358Z,96.64
2018-01-11T02:45:00.937Z,96.55
2018-01-11T02:45:41.560Z,96.64
2018-01-11T02:46:22.128Z,96.45
2018-01-11T02:47:02.694Z,96.45
2018-01-11T02:47:43.270Z,96.45
2018-01-11T02:48:23.837Z,96.55
2018-01-11T02:49:04.424Z,96.55
2018-01-11T02:49:44.960Z,96.64
2018-01-11T02:50:25.551Z,96.64
2018-01-11T02:51:06.106Z,96.55
2018-01-11T02:51:46.689Z,96.55
2018-01-11T02:52:27.253Z,96.55
2018-01-11T02:53:07.812Z,96.64
2018-01-11T02:53:48.376Z,96.45
2018-01-11T02:54:28.938Z,96.45
2018-01-11T02:55:09.547Z,96.55
2018-01-11T02:55:50.125Z,96.73
2018-01-11T02:56:30.731Z,96.73
2018-01-11T02:57:11.294Z,96.83
2018-01-11T02:57:51.861Z,96.92
2018-01-11T02:58:32.426Z,97.02
2018-01-11T02:59:13.016Z,96.64
2018-01-11T02:59:53.581Z,96.83
2018-01-11T03:00:34.155Z,96.64
2018-01-11T03:01:14.740Z,96.36
2018-01-11T03:01:55.330Z,96.17
2018-01-11T03:02:35.896Z,96.36
2018-01-11T03:03:16.485Z,96.26
2018-01-11T03:03:57.051Z,96.26
2018-01-11T03:04:37.620Z,96.36
2018-01-11T03:05:18.204Z,96.26
2018-01-11T03:05:58.799Z,96.55
2018-01-11T03:06:39.372Z,96.45
2018-01-11T03:07:19.951Z,96.36
2018-01-11T03:08:00.522Z,96.45
2018-01-11T03:08:41.091Z,96.45
2018-01-11T03:09:21.646Z,95.88
2018-01-11T03:10:02.209Z,95.98
2018-01-11T03:10:42.805Z,96.36
2018-01-11T03:11:23.374Z,96.17
2018-01-11T03:12:03.945Z,95.6
2018-01-11T03:12:44.497Z,95.69
2018-01-11T03:13:25.065Z,95.69
2018-01-11T03:14:05.623Z,96.17
2018-01-11T03:14:46.190Z,95.69
2018-01-11T03:15:26.767Z,95.5
2018-01-11T03:16:07.326Z,95.79
2018-01-11T03:16:47.896Z,95.69
2018-01-11T03:17:28.475Z,95.6
2018-01-11T03:18:09.043Z,95.79
2018-01-11T03:18:49.643Z,95.69
2018-01-11T03:19:30.215Z,95.88
2018-01-11T03:20:10.786Z,95.98
2018-01-11T03:20:51.350Z,95.88
2018-01-11T03:21:31.918Z,96.17
2018-01-11T03:22:12.494Z,96.17
2018-01-11T03:22:53.084Z,96.08
2018-01-11T03:23:33.653Z,95.6
2018-01-11T03:24:14.228Z,95.41
2018-01-11T03:24:54.788Z,95.6
2018-01-11T03:25:35.362Z,95.69
2018-01-11T03:26:15.917Z,95.41
2018-01-11T03:26:56.497Z,95.79
2018-01-11T03:27:37.077Z,95.79
2018-01-11T03:28:17.635Z,95.79
2018-01-11T03:28:58.220Z,94.93
2018-01-11T03:29:38.774Z,96.17
2018-01-11T03:30:19.347Z,95.22
2018-01-11T03:30:59.926Z,95.22
2018-01-11T03:31:40.512Z,95.12
2018-01-11T03:32:21.117Z,95.22
2018-01-11T03:33:01.673Z,95.12
2018-01-11T03:33:42.243Z,95.12
2018-01-11T03:34:22.812Z,95.12
2018-01-11T03:35:03.370Z,95.31
2018-01-11T03:35:43.935Z,95.41
2018-01-11T03:36:24.502Z,95.69
2018-01-11T03:37:05.094Z,94.84
2018-01-11T03:37:45.656Z,95.12
2018-01-11T03:38:26.221Z,95.12
2018-01-11T03:39:06.780Z,95.03
2018-01-11T03:39:47.388Z,95.03
2018-01-11T03:40:27.958Z,94.93
2018-01-11T03:41:08.528Z,94.93
2018-01-11T03:41:49.081Z,94.93
2018-01-11T03:42:29.644Z,94.93
2018-01-11T03:43:10.210Z,94.84
2018-01-11T03:43:50.767Z,95.12
2018-01-11T03:44:31.338Z,95.12
2018-01-11T03:45:11.935Z,94.65
2018-01-11T03:45:52.499Z,95.03
2018-01-11T03:46:33.072Z,94.74
2018-01-11T03:47:13.646Z,94.56
2018-01-11T03:47:54.218Z,94.74
2018-01-11T03:48:34.787Z,94.74
2018-01-11T03:49:15.393Z,94.56
2018-01-11T03:49:55.991Z,94.74
2018-01-11T03:50:36.557Z,94.56
2018-01-11T03:51:17.110Z,94.27
2018-01-11T03:51:57.685Z,94.37
2018-01-11T03:52:38.255Z,94.27
2018-01-11T03:53:18.817Z,94.74
2018-01-11T03:53:59.398Z,94.37
2018-01-11T03:54:39.948Z,94.37
2018-01-11T03:55:20.510Z,94.56
2018-01-11T03:56:01.065Z,94.46
2018-01-11T03:56:41.632Z,94.56
2018-01-11T03:57:22.199Z,94.56
2018-01-11T03:58:02.771Z,93.89
2018-01-11T03:58:43.333Z,94.08
2018-01-11T03:59:23.897Z,93.99
2018-01-11T04:00:04.462Z,94.27
2018-01-11T04:00:45.021Z,93.89
2018-01-11T04:01:25.594Z,93.7
2018-01-11T04:02:06.172Z,93.51
2018-01-11T04:02:46.743Z,93.7
2018-01-11T04:03:27.315Z,93.7
2018-01-11T04:04:07.889Z,93.7
2018-01-11T04:04:48.449Z,93.61
2018-01-11T04:05:29.032Z,93.61
2018-01-11T04:06:09.621Z,93.61
2018-01-11T04:06:50.179Z,93.61
2018-01-11T04:07:30.745Z,93.61
2018-01-11T04:08:11.316Z,93.89
2018-01-11T04:08:51.890Z,93.23
2018-01-11T04:09:32.462Z,93.23
2018-01-11T04:10:13.024Z,93.23
2018-01-11T04:10:53.599Z,93.04
2018-01-11T04:11:34.182Z,93.23
2018-01-11T04:12:14.750Z,92.85
2018-01-11T04:12:55.316Z,92.85
2018-01-11T04:13:35.897Z,93.32
2018-01-11T04:14:16.457Z,93.23
2018-01-11T04:14:57.015Z,93.04
2018-01-11T04:15:37.606Z,93.23
2018-01-11T04:16:18.191Z,93.23
2018-01-11T04:16:58.821Z,93.32
2018-01-11T04:17:39.390Z,93.04
2018-01-11T04:18:19.975Z,93.04
2018-01-11T04:19:00.533Z,93.32
2018-01-11T04:19:41.101Z,93.32
2018-01-11T04:20:21.676Z,93.41
2018-01-11T04:21:02.241Z,93.51
2018-01-11T04:21:42.790Z,93.32
2018-01-11T04:22:23.351Z,93.32
2018-01-11T04:23:03.919Z,93.13
2018-01-11T04:23:44.479Z,93.32
2018-01-11T04:24:25.038Z,93.04
2018-01-11T04:25:05.595Z,93.04
2018-01-11T04:25:46.173Z,93.23
2018-01-11T04:26:26.746Z,93.04
2018-01-11T04:27:07.321Z,93.04
2018-01-11T04:27:47.879Z,93.23
2018-01-11T04:28:28.448Z,93.04
2018-01-11T04:29:09.019Z,93.13
2018-01-11T04:29:49.586Z,93.23
2018-01-11T04:30:30.163Z,93.23
2018-01-11T04:31:10.733Z,92.85
2018-01-11T04:31:51.319Z,93.32
2018-01-11T04:32:31.888Z,92.94
2018-01-11T04:33:12.502Z,93.13
2018-01-11T04:33:53.066Z,93.13
2018-01-11T04:34:33.646Z,92.94
2018-01-11T04:35:14.248Z,93.04
2018-01-11T04:35:54.774Z,93.41
2018-01-11T04:36:35.382Z,93.04
2018-01-11T04:37:15.942Z,93.13
2018-01-11T04:37:56.506Z,92.85
2018-01-11T04:38:37.071Z,93.13
2018-01-11T04:39:17.628Z,93.32
2018-01-11T04:39:58.195Z,93.04
2018-01-11T04:40:38.780Z,93.04
2018-01-11T04:41:19.331Z,93.04
2018-01-11T04:41:59.899Z,93.23
2018-01-11T04:42:40.459Z,93.23
2018-01-11T04:43:21.031Z,93.13
2018-01-11T04:44:01.641Z,93.04
2018-01-11T04:44:42.217Z,93.04
2018-01-11T04:45:22.802Z,93.23
2018-01-11T04:46:03.379Z,93.41
2018-01-11T04:46:43.951Z,93.04
2018-01-11T04:47:24.553Z,92.66
2018-01-11T04:48:05.174Z,93.04
2018-01-11T04:48:45.748Z,92.85
2018-01-11T04:49:26.333Z,92.57
2018-01-11T04:50:06.891Z,92.38
2018-01-11T04:50:47.473Z,92.38
2018-01-11T04:51:28.043Z,92.09
2018-01-11T04:52:08.808Z,92.33
2018-01-11T04:52:49.384Z,92.33
2018-01-11T04:53:29.940Z,92.14
2018-01-11T04:54:10.532Z,92.14
2018-01-11T04:54:51.104Z,92.18
2018-01-11T04:55:31.677Z,92.38
2018-01-11T04:56:12.258Z,92.38
2018-01-11T04:56:52.819Z,92.33
2018-01-11T04:57:33.373Z,92.61
2018-01-11T04:58:13.943Z,92.23
2018-01-11T04:58:54.540Z,92.47
2018-01-11T04:59:35.075Z,92.33
2018-01-11T05:00:15.673Z,92.14
2018-01-11T05:00:56.237Z,92.14
2018-01-11T05:01:37.544Z,92.52
2018-01-11T05:02:18.100Z,92.33
2018-01-11T05:02:58.674Z,92.33
2018-01-11T05:03:39.263Z,92.42
2018-01-11T05:04:19.835Z,92.42
2018-01-11T05:05:00.415Z,92.23
2018-01-11T05:05:41.032Z,92.42
2018-01-11T05:06:21.582Z,92.23
2018-01-11T05:07:02.167Z,92.33
2018-01-11T05:07:42.721Z,92.23
2018-01-11T05:08:23.293Z,92.23
2018-01-11T05:09:03.853Z,92.23
2018-01-11T05:09:44.417Z,92.71
2018-01-11T05:10:24.968Z,92.61
2018-01-11T05:11:05.549Z,93.08
2018-01-11T05:11:46.125Z,92.99
2018-01-11T05:12:26.687Z,92.52
2018-01-11T05:13:07.242Z,93.18
2018-01-11T05:13:47.837Z,93.27
2018-01-11T05:14:28.396Z,93.37
2018-01-11T05:15:08.959Z,93.27
2018-01-11T05:15:49.518Z,93.18
2018-01-11T05:16:30.095Z,92.99
2018-01-11T05:17:10.646Z,93.27
2018-01-11T05:17:51.211Z,92.8
2018-01-11T05:18:31.787Z,93.27
2018-01-11T05:19:12.345Z,92.99
2018-01-11T05:19:52.900Z,92.99
2018-01-11T05:20:33.467Z,93.18
2018-01-11T05:21:14.039Z,93.27
2018-01-11T05:21:54.590Z,92.8
2018-01-11T05:22:35.163Z,92.71
2018-01-11T05:23:15.742Z,92.99
2018-01-11T05:23:56.304Z,92.61
2018-01-11T05:24:36.889Z,92.99
2018-01-11T05:25:17.451Z,92.71
2018-01-11T05:25:58.017Z,92.71
2018-01-11T05:26:38.585Z,93.18
2018-01-11T05:27:19.174Z,93.46
2018-01-11T05:27:59.743Z,93.18
2018-01-11T05:28:40.331Z,93.37
2018-01-11T05:29:20.893Z,93.18
2018-01-11T05:30:01.483Z,92.8
2018-01-11T05:30:42.074Z,93.08
2018-01-11T05:31:22.666Z,93.46
2018-01-11T05:32:03.237Z,93.18
2018-01-11T05:32:43.802Z,93.08
2018-01-11T05:33:24.366Z,92.99
2018-01-11T05:34:04.930Z,93.18
2018-01-11T05:34:45.510Z,93.56
2018-01-11T05:35:26.074Z,93.46
2018-01-11T05:36:06.647Z,92.99
2018-01-11T05:36:47.207Z,93.18
2018-01-11T05:37:27.769Z,93.27
2018-01-11T05:38:08.333Z,93.18
2018-01-11T05:38:48.899Z,93.08
2018-01-11T05:39:29.467Z,93.18
2018-01-11T05:40:10.031Z,93.18
2018-01-11T05:40:50.607Z,93.56
2018-01-11T05:41:31.172Z,93.65
2018-01-11T05:42:11.754Z,93.56
2018-01-11T05:42:52.329Z,93.46
2018-01-11T05:43:32.904Z,93.84
2018-01-11T05:44:13.466Z,93.65
2018-01-11T05:44:54.032Z,93.46
2018-01-11T05:45:34.592Z,93.37
2018-01-11T05:46:15.174Z,92.99
2018-01-11T05:46:55.735Z,93.27
2018-01-11T05:47:36.323Z,92.99
2018-01-11T05:48:16.908Z,92.99
2018-01-11T05:48:57.493Z,93.08
2018-01-11T05:49:38.049Z,93.08
2018-01-11T05:50:18.642Z,93.08
2018-01-11T05:51:01.044Z,92.99
2018-01-11T05:51:41.617Z,93.18
2018-01-11T05:52:22.183Z,93.56
2018-01-11T05:53:02.763Z,93.84
2018-01-11T05:53:43.358Z,93.46
2018-01-11T05:54:23.928Z,93.46
2018-01-11T05:55:04.489Z,93.94
2018-01-11T05:55:45.054Z,93.84
2018-01-11T05:56:25.628Z,94.04
2018-01-11T05:57:06.207Z,94.13
2018-01-11T05:57:46.780Z,93.84
2018-01-11T05:58:27.345Z,93.84
2018-01-11T05:59:07.901Z,94.04
2018-01-11T05:59:48.471Z,93.94
2018-01-11T06:00:29.029Z,93.84
2018-01-11T06:01:09.584Z,94.42
2018-01-11T06:01:50.158Z,94.32
2018-01-11T06:02:30.721Z,94.13
2018-01-11T06:03:11.286Z,94.7
2018-01-11T06:03:51.858Z,94.32
2018-01-11T06:04:32.416Z,94.32
2018-01-11T06:05:13.024Z,94.42
2018-01-11T06:05:53.644Z,94.32
2018-01-11T06:06:34.211Z,94.32
2018-01-11T06:07:14.792Z,94.42
2018-01-11T06:07:55.383Z,94.51
2018-01-11T06:08:35.949Z,94.42
2018-01-11T06:09:16.518Z,94.32
2018-01-11T06:09:57.120Z,94.42
2018-01-11T06:10:37.726Z,94.42
2018-01-11T06:11:18.284Z,94.32
2018-01-11T06:11:58.865Z,94.32
2018-01-11T06:12:39.450Z,94.42
2018-01-11T06:13:20.116Z,94.32
2018-01-11T06:14:00.710Z,94.13
2018-01-11T06:14:41.276Z,94.32
2018-01-11T06:15:21.832Z,94.42
2018-01-11T06:16:02.516Z,94.23
2018-01-11T06:16:43.098Z,94.32
2018-01-11T06:17:23.683Z,94.42
2018-01-11T06:18:04.259Z,94.42
2018-01-11T06:18:44.855Z,94.42
2018-01-11T06:19:25.442Z,94.32
2018-01-11T06:20:06.164Z,94.42
2018-01-11T06:20:48.504Z,94.23
2018-01-11T06:21:29.075Z,94.46
2018-01-11T06:22:09.894Z,93.94
2018-01-11T06:22:50.466Z,93.75
2018-01-11T06:23:31.027Z,93.84
2018-01-11T06:24:11.626Z,93.94
2018-01-11T06:24:52.211Z,94.04
2018-01-11T06:25:32.773Z,94.08
2018-01-11T06:26:13.355Z,93.89
2018-01-11T06:26:53.924Z,93.94
2018-01-11T06:27:34.484Z,93.75
2018-01-11T06:28:15.146Z,93.94
2018-01-11T06:28:55.698Z,93.99
2018-01-11T06:29:36.348Z,94.08
2018-01-11T06:30:16.911Z,94.08
2018-01-11T06:30:57.482Z,93.99
2018-01-11T06:31:38.075Z,95.12
2018-01-11T06:32:18.654Z,97.97
2018-01-11T06:32:59.219Z,99.68
2018-01-11T06:33:39.791Z,99.99
2018-01-11T06:34:20.356Z,99.99
2018-01-11T06:35:00.944Z,99.99
2018-01-11T06:35:41.505Z,99.99
2018-01-11T06:36:22.118Z,99.99
2018-01-11T06:37:02.750Z,99.58
2018-01-11T06:37:43.318Z,98.35
2018-01-11T06:38:23.915Z,96.74
2018-01-11T06:39:04.478Z,95.75
2018-01-11T06:39:45.056Z,94.51
2018-01-11T06:40:25.640Z,93.08
2018-01-11T06:41:06.208Z,92.9
2018-01-11T06:41:46.833Z,91.66
2018-01-11T06:42:27.401Z,89.76
2018-01-11T06:43:07.978Z,88.15
2018-01-11T06:43:48.548Z,87.1
2018-01-11T06:44:29.136Z,86.24
2018-01-11T06:45:09.702Z,85.86
2018-01-11T06:45:50.287Z,86.15
2018-01-11T06:46:30.853Z,86.01
2018-01-11T06:47:11.424Z,86.01
2018-01-11T06:47:51.983Z,86.11
2018-01-11T06:48:32.560Z,86.58
2018-01-11T06:49:13.122Z,86.96
2018-01-11T06:49:53.688Z,86.68
2018-01-11T06:50:34.248Z,86.82
2018-01-11T06:51:14.825Z,86.63
2018-01-11T06:51:55.380Z,87.3
2018-01-11T06:52:35.934Z,87.77
2018-01-11T06:53:16.491Z,87.96
2018-01-11T06:53:57.057Z,88.53
2018-01-11T06:54:37.620Z,88.53
2018-01-11T06:55:18.196Z,88.91
2018-01-11T06:55:58.773Z,88.62
2018-01-11T06:56:39.335Z,89.29
2018-01-11T06:57:19.898Z,89.1
2018-01-11T06:58:00.481Z,88.91
2018-01-11T06:58:41.035Z,89.58
2018-01-11T06:59:21.602Z,89.67
2018-01-11T07:00:02.217Z,89.58
2018-01-11T07:00:42.751Z,89.95
2018-01-11T07:01:23.323Z,89.86
2018-01-11T07:02:03.880Z,90.24
2018-01-11T07:02:44.445Z,90.14
2018-01-11T07:03:25.023Z,90.62
2018-01-11T07:04:05.618Z,90.9
2018-01-11T07:04:46.179Z,90.81
2018-01-11T07:05:26.739Z,90.95
2018-01-11T07:06:07.325Z,91.24
2018-01-11T07:06:47.923Z,91.24
2018-01-11T07:07:28.499Z,91.14
2018-01-11T07:08:09.061Z,91.05
2018-01-11T07:08:49.634Z,91.33
2018-01-11T07:09:30.206Z,91.42
2018-01-11T07:10:10.776Z,91.8
2018-01-11T07:10:51.355Z,91.52
2018-01-11T07:11:31.913Z,91.33
2018-01-11T07:12:12.471Z,91.52
2018-01-11T07:12:53.043Z,91.33
2018-01-11T07:13:33.613Z,91.71
2018-01-11T07:14:14.214Z,91.42
2018-01-11T07:14:54.778Z,91.71
2018-01-11T07:15:35.354Z,91.8
2018-01-11T07:16:15.942Z,92.18
2018-01-11T07:16:56.522Z,92.18
2018-01-11T07:17:37.087Z,91.99
2018-01-11T07:18:17.656Z,91.99
2018-01-11T07:18:58.213Z,92.57
2018-01-11T07:19:38.765Z,92.38
2018-01-11T07:20:19.320Z,92.18
2018-01-11T07:20:59.882Z,92.38
2018-01-11T07:21:40.449Z,92.09
2018-01-11T07:22:21.008Z,92.28
2018-01-11T07:23:01.567Z,92.76
2018-01-11T07:23:42.131Z,93.04
2018-01-11T07:24:22.690Z,92.85
2018-01-11T07:25:03.261Z,92.85
2018-01-11T07:25:43.863Z,93.13
2018-01-11T07:26:24.414Z,93.13
2018-01-11T07:27:04.975Z,93.23
2018-01-11T07:27:45.539Z,93.04
2018-01-11T07:28:26.108Z,93.23
2018-01-11T07:29:06.688Z,93.32
2018-01-11T07:29:47.254Z,93.04
2018-01-11T07:30:27.822Z,93.13
2018-01-11T07:31:08.415Z,93.32
2018-01-11T07:31:49.021Z,93.13
2018-01-11T07:32:29.659Z,93.13
2018-01-11T07:33:10.241Z,93.13
2018-01-11T07:33:50.834Z,93.04
2018-01-11T07:34:31.405Z,93.23
2018-01-11T07:35:12.046Z,93.8
2018-01-11T07:35:52.629Z,93.61
2018-01-11T07:36:34.533Z,94.08
2018-01-11T07:37:15.116Z,94.08
2018-01-11T07:37:55.701Z,94.08
2018-01-11T07:38:36.269Z,93.89
2018-01-11T07:39:16.835Z,93.99
2018-01-11T07:39:57.395Z,94.18
2018-01-11T07:40:38.057Z,94.18
2018-01-11T07:41:18.643Z,94.46
2018-01-11T07:41:59.225Z,94.37
2018-01-11T07:42:39.814Z,94.37
2018-01-11T07:43:20.376Z,94.56
2018-01-11T07:44:00.948Z,94.37
2018-01-11T07:44:41.528Z,94.56
2018-01-11T07:45:22.088Z,94.46
2018-01-11T07:46:02.677Z,94.37
2018-01-11T07:46:43.317Z,94.27
2018-01-11T07:47:23.870Z,94.08
2018-01-11T07:48:04.462Z,94.56
2018-01-11T07:48:45.059Z,94.37
2018-01-11T07:49:25.629Z,94.65
2018-01-11T07:50:06.216Z,94.27
2018-01-11T07:50:46.810Z,94.46
2018-01-11T07:51:27.409Z,94.74
2018-01-11T07:52:08.051Z,94.56
2018-01-11T07:52:48.649Z,95.03
2018-01-11T07:53:29.218Z,94.84
2018-01-11T07:54:09.789Z,94.46
2018-01-11T07:54:50.353Z,94.46
2018-01-11T07:55:31.767Z,94.84
2018-01-11T07:57:45.219Z,94.93
2018-01-11T07:58:25.769Z,95.41
2018-01-11T07:59:06.337Z,95.41
2018-01-11T07:59:46.908Z,95.22
2018-01-11T08:00:27.483Z,95.31
2018-01-11T08:01:08.040Z,95.22
2018-01-11T08:01:48.608Z,95.03
2018-01-11T08:02:29.177Z,95.31
2018-01-11T08:03:09.741Z,95.41
2018-01-11T08:03:50.307Z,95.41
2018-01-11T08:04:30.858Z,95.5
2018-01-11T08:05:11.422Z,95.6
2018-01-11T08:05:51.989Z,95.41
2018-01-11T08:06:32.549Z,94.74
2018-01-11T08:07:13.125Z,94.93
2018-01-11T08:07:53.681Z,94.93
2018-01-11T08:08:34.331Z,94.84
2018-01-11T08:09:14.918Z,94.93
2018-01-11T08:09:55.515Z,94.93
2018-01-11T08:10:36.071Z,94.84
2018-01-11T08:11:16.645Z,94.65
2018-01-11T08:11:57.200Z,95.22
2018-01-11T08:12:37.786Z,94.65
2018-01-11T08:13:18.392Z,95.5
2018-01-11T08:13:58.965Z,95.41
2018-01-11T08:14:39.540Z,95.5
2018-01-11T08:15:20.097Z,95.41
2018-01-11T08:16:00.662Z,95.5
2018-01-11T08:16:41.208Z,94.84
2018-01-11T08:17:21.781Z,94.65
2018-01-11T08:18:02.347Z,95.03
2018-01-11T08:18:42.924Z,94.93
2018-01-11T08:19:23.477Z,95.03
2018-01-11T08:20:04.045Z,95.03
2018-01-11T08:20:44.616Z,94.93
2018-01-11T08:21:25.192Z,95.03
2018-01-11T08:22:05.798Z,94.93
2018-01-11T08:22:46.403Z,94.84
2018-01-11T08:23:26.953Z,94.93
2018-01-11T08:24:07.519Z,94.65
2018-01-11T08:24:48.073Z,94.93
2018-01-11T08:25:28.641Z,95.03
2018-01-11T08:26:09.266Z,94.93
2018-01-11T08:26:49.818Z,94.93
2018-01-11T08:27:30.375Z,94.93
2018-01-11T08:28:10.936Z,95.12
2018-01-11T08:28:51.521Z,94.65
2018-01-11T08:29:32.088Z,94.93
2018-01-11T08:30:12.679Z,94.84
2018-01-11T08:30:53.239Z,94.65
2018-01-11T08:31:33.809Z,94.93
2018-01-11T08:32:14.387Z,95.03
2018-01-11T08:32:54.975Z,95.03
2018-01-11T08:33:35.525Z,95.03
2018-01-11T08:34:16.079Z,95.03
2018-01-11T08:34:56.661Z,94.65
2018-01-11T08:35:37.258Z,95.12
2018-01-11T08:36:17.806Z,94.74
2018-01-11T08:36:58.370Z,94.74
2018-01-11T08:37:38.946Z,94.84
2018-01-11T08:38:19.538Z,95.5
2018-01-11T08:39:00.107Z,95.69
2018-01-11T08:39:40.668Z,95.5
2018-01-11T08:40:21.256Z,95.12
2018-01-11T08:41:01.876Z,95.12
2018-01-11T08:41:42.466Z,95.31
2018-01-11T08:42:23.118Z,95.5
2018-01-11T08:43:03.707Z,95.12
2018-01-11T08:43:44.245Z,95.22
2018-01-11T08:44:24.835Z,95.12
2018-01-11T08:45:05.409Z,94.93